<?xml version="1.0" encoding="UTF-8" standalone="no" ?>
<gpx xmlns="http://www.topografix.com/GPX/1/1" xmlns:xsi="http://www.w3.org/2001/XMLSchema-instance" xsi:schemaLocation="http://www.topografix.com/GPX/1/1 http://www.topografix.com/GPX/1/1/gpx.xsd" version="1.1" creator="VisuGPX - https://www.visugpx.com">
  <metadata>
    <name>Abbaretz_MineGruellauVariante_23.1km</name>
    <desc><![CDATA[gnerando Idor: 6885808_8206575_8332675]]></desc>
  </metadata>
  <trk>
    <name><![CDATA[Abbaretz_GruellauMine_23.2km-8206575]]></name>
    <extensions>
      <line xmlns="http://www.topografix.com/GPX/gpx_style/0/2">
        <color>00FF00</color>
        <width>4</width>
      </line>
    </extensions>
    <trkseg>
      <trkpt lat="47.58357" lon="-1.57711">
        <ele>32</ele>
        <time>2023-10-29T15:33:30Z</time>
      </trkpt>
      <trkpt lat="47.58325" lon="-1.57964">
        <ele>32</ele>
        <time>2023-10-29T15:37:22Z</time>
      </trkpt>
      <trkpt lat="47.58606" lon="-1.57799">
        <ele>25</ele>
        <time>2023-10-29T15:44:05Z</time>
      </trkpt>
      <trkpt lat="47.58876" lon="-1.57776">
        <ele>23</ele>
        <time>2023-10-29T15:50:06Z</time>
      </trkpt>
      <trkpt lat="47.58972" lon="-1.57537">
        <ele>23</ele>
        <time>2023-10-29T15:54:16Z</time>
      </trkpt>
      <trkpt lat="47.59001" lon="-1.57397">
        <ele>23</ele>
        <time>2023-10-29T15:56:28Z</time>
      </trkpt>
      <trkpt lat="47.59204" lon="-1.57144">
        <ele>22</ele>
        <time>2023-10-29T16:02:22Z</time>
      </trkpt>
      <trkpt lat="47.59303" lon="-1.57201">
        <ele>23</ele>
        <time>2023-10-29T16:04:44Z</time>
      </trkpt>
      <trkpt lat="47.59358" lon="-1.57014">
        <ele>25</ele>
        <time>2023-10-29T16:07:47Z</time>
      </trkpt>
      <trkpt lat="47.59254" lon="-1.56851">
        <ele>26</ele>
        <time>2023-10-29T16:11:09Z</time>
      </trkpt>
      <trkpt lat="47.59248" lon="-1.56736">
        <ele>26</ele>
        <time>2023-10-29T16:12:53Z</time>
      </trkpt>
      <trkpt lat="47.59017" lon="-1.56777">
        <ele>29</ele>
        <time>2023-10-29T16:18:04Z</time>
      </trkpt>
      <trkpt lat="47.58935" lon="-1.56679">
        <ele>30</ele>
        <time>2023-10-29T16:20:24Z</time>
      </trkpt>
      <trkpt lat="47.58654" lon="-1.56826">
        <ele>28</ele>
        <time>2023-10-29T16:27:02Z</time>
      </trkpt>
      <trkpt lat="47.58528" lon="-1.56549">
        <ele>37</ele>
        <time>2023-10-29T16:32:02Z</time>
      </trkpt>
      <trkpt lat="47.58544" lon="-1.56451">
        <ele>38</ele>
        <time>2023-10-29T16:33:33Z</time>
      </trkpt>
      <trkpt lat="47.58715" lon="-1.56475">
        <ele>32</ele>
        <time>2023-10-29T16:37:22Z</time>
      </trkpt>
      <trkpt lat="47.5877" lon="-1.56027">
        <ele>33</ele>
        <time>2023-10-29T16:44:12Z</time>
      </trkpt>
      <trkpt lat="47.59045" lon="-1.55929">
        <ele>32</ele>
        <time>2023-10-29T16:50:30Z</time>
      </trkpt>
      <trkpt lat="47.5916" lon="-1.55937">
        <ele>32</ele>
        <time>2023-10-29T16:53:03Z</time>
      </trkpt>
      <trkpt lat="47.59199" lon="-1.56157">
        <ele>32</ele>
        <time>2023-10-29T16:56:28Z</time>
      </trkpt>
      <trkpt lat="47.59387" lon="-1.55902">
        <ele>29</ele>
        <time>2023-10-29T17:02:08Z</time>
      </trkpt>
      <trkpt lat="47.59523" lon="-1.55562">
        <ele>25</ele>
        <time>2023-10-29T17:08:04Z</time>
      </trkpt>
      <trkpt lat="47.59122" lon="-1.54893">
        <ele>25</ele>
        <time>2023-10-29T17:21:29Z</time>
      </trkpt>
      <trkpt lat="47.59325" lon="-1.54771">
        <ele>25</ele>
        <time>2023-10-29T17:26:22Z</time>
      </trkpt>
      <trkpt lat="47.59342" lon="-1.54697">
        <ele>25</ele>
        <time>2023-10-29T17:27:32Z</time>
      </trkpt>
      <trkpt lat="47.5987" lon="-1.54281">
        <ele>28</ele>
        <time>2023-10-29T17:40:50Z</time>
      </trkpt>
      <trkpt lat="47.60029" lon="-1.54265">
        <ele>27</ele>
        <time>2023-10-29T17:44:22Z</time>
      </trkpt>
      <trkpt lat="47.60233" lon="-1.53556">
        <ele>28</ele>
        <time>2023-10-29T17:55:56Z</time>
      </trkpt>
      <trkpt lat="47.60299" lon="-1.5336">
        <ele>29</ele>
        <time>2023-10-29T17:59:13Z</time>
      </trkpt>
      <trkpt lat="47.60464" lon="-1.53066">
        <ele>26</ele>
        <time>2023-10-29T18:04:57Z</time>
      </trkpt>
      <trkpt lat="47.60469" lon="-1.52797">
        <ele>27</ele>
        <time>2023-10-29T18:09:00Z</time>
      </trkpt>
      <trkpt lat="47.60409" lon="-1.52626">
        <ele>29</ele>
        <time>2023-10-29T18:11:53Z</time>
      </trkpt>
      <trkpt lat="47.60315" lon="-1.52626">
        <ele>29</ele>
        <time>2023-10-29T18:13:58Z</time>
      </trkpt>
      <trkpt lat="47.60211" lon="-1.52732">
        <ele>27</ele>
        <time>2023-10-29T18:16:47Z</time>
      </trkpt>
      <trkpt lat="47.6009" lon="-1.52691">
        <ele>30</ele>
        <time>2023-10-29T18:19:32Z</time>
      </trkpt>
      <trkpt lat="47.59985" lon="-1.5265">
        <ele>30</ele>
        <time>2023-10-29T18:21:57Z</time>
      </trkpt>
      <trkpt lat="47.59584" lon="-1.5296">
        <ele>33</ele>
        <time>2023-10-29T18:32:01Z</time>
      </trkpt>
      <trkpt lat="47.59623" lon="-1.53267">
        <ele>33</ele>
        <time>2023-10-29T18:36:42Z</time>
      </trkpt>
      <trkpt lat="47.59565" lon="-1.53234">
        <ele>34</ele>
        <time>2023-10-29T18:38:05Z</time>
      </trkpt>
      <trkpt lat="47.59425" lon="-1.53326">
        <ele>34</ele>
        <time>2023-10-29T18:41:29Z</time>
      </trkpt>
      <trkpt lat="47.59418" lon="-1.54069">
        <ele>29</ele>
        <time>2023-10-29T18:52:38Z</time>
      </trkpt>
      <trkpt lat="47.59389" lon="-1.54144">
        <ele>29</ele>
        <time>2023-10-29T18:53:56Z</time>
      </trkpt>
      <trkpt lat="47.59595" lon="-1.54507">
        <ele>26</ele>
        <time>2023-10-29T19:01:03Z</time>
      </trkpt>
      <trkpt lat="47.59093" lon="-1.54907">
        <ele>26</ele>
        <time>2023-10-29T19:13:43Z</time>
      </trkpt>
      <trkpt lat="47.58996" lon="-1.54994">
        <ele>26</ele>
        <time>2023-10-29T19:16:14Z</time>
      </trkpt>
      <trkpt lat="47.58831" lon="-1.55013">
        <ele>26</ele>
        <time>2023-10-29T19:19:55Z</time>
      </trkpt>
      <trkpt lat="47.58455" lon="-1.55224">
        <ele>33</ele>
        <time>2023-10-29T19:28:52Z</time>
      </trkpt>
      <trkpt lat="47.58358" lon="-1.55474">
        <ele>34</ele>
        <time>2023-10-29T19:33:11Z</time>
      </trkpt>
      <trkpt lat="47.58151" lon="-1.55575">
        <ele>37</ele>
        <time>2023-10-29T19:38:02Z</time>
      </trkpt>
      <trkpt lat="47.58008" lon="-1.55584">
        <ele>36</ele>
        <time>2023-10-29T19:41:13Z</time>
      </trkpt>
      <trkpt lat="47.57856" lon="-1.55532">
        <ele>38</ele>
        <time>2023-10-29T19:44:41Z</time>
      </trkpt>
      <trkpt lat="47.57509" lon="-1.55349">
        <ele>31</ele>
        <time>2023-10-29T19:52:53Z</time>
      </trkpt>
      <trkpt lat="47.57477" lon="-1.55243">
        <ele>31</ele>
        <time>2023-10-29T19:54:37Z</time>
      </trkpt>
      <trkpt lat="47.5749" lon="-1.54922">
        <ele>32</ele>
        <time>2023-10-29T19:59:27Z</time>
      </trkpt>
      <trkpt lat="47.57412" lon="-1.54907">
        <ele>32</ele>
        <time>2023-10-29T20:01:12Z</time>
      </trkpt>
      <trkpt lat="47.57279" lon="-1.54461">
        <ele>32</ele>
        <time>2023-10-29T20:08:31Z</time>
      </trkpt>
      <trkpt lat="47.57056" lon="-1.54168">
        <ele>35</ele>
        <time>2023-10-29T20:15:09Z</time>
      </trkpt>
      <trkpt lat="47.56767" lon="-1.54139">
        <ele>36</ele>
        <time>2023-10-29T20:21:35Z</time>
      </trkpt>
      <trkpt lat="47.56771" lon="-1.53625">
        <ele>37</ele>
        <time>2023-10-29T20:29:18Z</time>
      </trkpt>
      <trkpt lat="47.56618" lon="-1.53174">
        <ele>38</ele>
        <time>2023-10-29T20:36:52Z</time>
      </trkpt>
      <trkpt lat="47.56528" lon="-1.5315">
        <ele>39</ele>
        <time>2023-10-29T20:38:54Z</time>
      </trkpt>
      <trkpt lat="47.56531" lon="-1.53255">
        <ele>40</ele>
        <time>2023-10-29T20:40:29Z</time>
      </trkpt>
      <trkpt lat="47.5645" lon="-1.53688">
        <ele>48</ele>
        <time>2023-10-29T20:47:14Z</time>
      </trkpt>
      <trkpt lat="47.562" lon="-1.53577">
        <ele>48</ele>
        <time>2023-10-29T20:53:02Z</time>
      </trkpt>
      <trkpt lat="47.55954" lon="-1.53697">
        <ele>54</ele>
        <time>2023-10-29T20:58:48Z</time>
      </trkpt>
      <trkpt lat="47.55944" lon="-1.54096">
        <ele>57</ele>
        <time>2023-10-29T21:04:47Z</time>
      </trkpt>
      <trkpt lat="47.55983" lon="-1.54153">
        <ele>59</ele>
        <time>2023-10-29T21:06:00Z</time>
      </trkpt>
      <trkpt lat="47.55948" lon="-1.54235">
        <ele>62</ele>
        <time>2023-10-29T21:07:28Z</time>
      </trkpt>
      <trkpt lat="47.56139" lon="-1.54374">
        <ele>84</ele>
        <time>2023-10-29T21:12:12Z</time>
      </trkpt>
      <trkpt lat="47.55882" lon="-1.54185">
        <ele>57</ele>
        <time>2023-10-29T21:18:34Z</time>
      </trkpt>
      <trkpt lat="47.55782" lon="-1.54175">
        <ele>59</ele>
        <time>2023-10-29T21:20:48Z</time>
      </trkpt>
      <trkpt lat="47.55813" lon="-1.54343">
        <ele>63</ele>
        <time>2023-10-29T21:23:25Z</time>
      </trkpt>
      <trkpt lat="47.55823" lon="-1.54558">
        <ele>62</ele>
        <time>2023-10-29T21:26:39Z</time>
      </trkpt>
      <trkpt lat="47.55851" lon="-1.54736">
        <ele>60</ele>
        <time>2023-10-29T21:29:24Z</time>
      </trkpt>
      <trkpt lat="47.55779" lon="-1.54997">
        <ele>56</ele>
        <time>2023-10-29T21:33:38Z</time>
      </trkpt>
      <trkpt lat="47.55885" lon="-1.55318">
        <ele>48</ele>
        <time>2023-10-29T21:38:59Z</time>
      </trkpt>
      <trkpt lat="47.55524" lon="-1.55772">
        <ele>57</ele>
        <time>2023-10-29T21:49:31Z</time>
      </trkpt>
      <trkpt lat="47.55734" lon="-1.56655">
        <ele>53</ele>
        <time>2023-10-29T22:03:34Z</time>
      </trkpt>
      <trkpt lat="47.5602" lon="-1.56528">
        <ele>47</ele>
        <time>2023-10-29T22:10:13Z</time>
      </trkpt>
      <trkpt lat="47.56016" lon="-1.56696">
        <ele>48</ele>
        <time>2023-10-29T22:12:44Z</time>
      </trkpt>
      <trkpt lat="47.56078" lon="-1.57263">
        <ele>41</ele>
        <time>2023-10-29T22:21:21Z</time>
      </trkpt>
      <trkpt lat="47.56949" lon="-1.57426">
        <ele>32</ele>
        <time>2023-10-29T22:40:53Z</time>
      </trkpt>
      <trkpt lat="47.5707" lon="-1.57783">
        <ele>32</ele>
        <time>2023-10-29T22:46:53Z</time>
      </trkpt>
      <trkpt lat="47.57755" lon="-1.57875">
        <ele>29</ele>
        <time>2023-10-29T23:02:11Z</time>
      </trkpt>
      <trkpt lat="47.5791" lon="-1.5789">
        <ele>34</ele>
        <time>2023-10-29T23:05:38Z</time>
      </trkpt>
      <trkpt lat="47.58017" lon="-1.57763">
        <ele>36</ele>
        <time>2023-10-29T23:08:41Z</time>
      </trkpt>
      <trkpt lat="47.58127" lon="-1.57799">
        <ele>33</ele>
        <time>2023-10-29T23:11:11Z</time>
      </trkpt>
      <trkpt lat="47.58104" lon="-1.57748">
        <ele>35</ele>
        <time>2023-10-29T23:12:06Z</time>
      </trkpt>
      <trkpt lat="47.58165" lon="-1.57749">
        <ele>37</ele>
        <time>2023-10-29T23:13:28Z</time>
      </trkpt>
      <trkpt lat="47.58208" lon="-1.57785">
        <ele>36</ele>
        <time>2023-10-29T23:14:34Z</time>
      </trkpt>
      <trkpt lat="47.58262" lon="-1.57781">
        <ele>37</ele>
        <time>2023-10-29T23:15:46Z</time>
      </trkpt>
      <trkpt lat="47.58266" lon="-1.57727">
        <ele>38</ele>
        <time>2023-10-29T23:16:35Z</time>
      </trkpt>
      <trkpt lat="47.58346" lon="-1.57717">
        <ele>32</ele>
        <time>2023-10-29T23:18:22Z</time>
      </trkpt>
    </trkseg>
  </trk>
</gpx>